createdAt,value
2023-05-14T00:00:01.491Z,28.01
2023-05-14T00:03:07.299Z,28.09
2023-05-14T00:06:10.882Z,28.31
2023-05-14T00:09:14.176Z,28.07
2023-05-14T00:12:18.284Z,27.90
2023-05-14T00:15:21.860Z,27.97
2023-05-14T00:18:25.421Z,27.89
2023-05-14T00:21:29.567Z,27.84
2023-05-14T00:24:33.460Z,27.82
2023-05-14T00:27:37.360Z,27.74
2023-05-14T00:30:40.881Z,27.66
2023-05-14T00:33:44.284Z,27.70
2023-05-14T00:36:47.568Z,27.60
2023-05-14T00:39:52.012Z,27.39
2023-05-14T00:42:56.739Z,27.46
2023-05-14T00:46:00.130Z,27.45
2023-05-14T00:49:03.634Z,27.39
2023-05-14T00:52:07.517Z,27.29
2023-05-14T00:55:11.276Z,27.14
2023-05-14T00:58:17.980Z,27.18
2023-05-14T01:01:21.358Z,27.02
2023-05-14T01:04:24.824Z,26.94
2023-05-14T01:07:48.762Z,27.00
2023-05-14T01:10:52.905Z,26.92
2023-05-14T01:14:04.395Z,26.74
2023-05-14T01:17:08.981Z,26.69
2023-05-14T01:20:12.729Z,26.62
2023-05-14T01:23:16.078Z,27.04
2023-05-14T01:26:19.902Z,26.95
2023-05-14T01:29:24.354Z,26.86
2023-05-14T01:32:28.557Z,26.86
2023-05-14T01:35:32.094Z,26.48
2023-05-14T01:38:35.805Z,26.37
2023-05-14T01:41:39.491Z,26.61
2023-05-14T01:44:42.967Z,26.83
2023-05-14T01:47:48.493Z,26.91
2023-05-14T01:50:52.170Z,26.68
2023-05-14T01:54:00.250Z,26.66
2023-05-14T01:57:03.474Z,26.46
2023-05-14T02:00:07.625Z,26.49
2023-05-14T02:03:11.110Z,26.35
2023-05-14T02:06:14.597Z,26.61
2023-05-14T02:09:17.750Z,26.58
2023-05-14T02:12:21.036Z,26.65
2023-05-14T02:15:24.663Z,26.75
2023-05-14T02:18:28.197Z,26.73
2023-05-14T02:21:31.477Z,26.52
2023-05-14T02:24:34.893Z,26.70
2023-05-14T02:27:38.385Z,26.70
2023-05-14T02:30:42.166Z,26.60
2023-05-14T02:33:46.469Z,26.38
2023-05-14T02:36:49.863Z,26.41
2023-05-14T02:39:53.100Z,26.15
2023-05-14T02:42:56.527Z,26.02
2023-05-14T02:46:02.088Z,25.96
2023-05-14T02:49:05.675Z,25.92
2023-05-14T02:52:09.121Z,25.92
2023-05-14T02:55:12.686Z,25.53
2023-05-14T02:58:16.092Z,25.74
2023-05-14T03:01:19.678Z,25.76
2023-05-14T03:04:23.719Z,25.68
2023-05-14T03:07:28.141Z,25.39
2023-05-14T03:10:31.368Z,25.29
2023-05-14T03:13:37.133Z,25.39
2023-05-14T03:16:40.848Z,25.40
2023-05-14T03:19:44.438Z,25.37
2023-05-14T03:22:47.889Z,25.34
2023-05-14T03:25:51.503Z,24.91
2023-05-14T03:28:54.970Z,25.05
2023-05-14T03:31:58.538Z,24.88
2023-05-14T03:35:02.034Z,25.12
2023-05-14T03:38:05.371Z,25.17
2023-05-14T03:41:08.696Z,25.03
2023-05-14T03:44:12.049Z,24.98
2023-05-14T03:47:15.546Z,25.01
2023-05-14T03:50:19.074Z,25.02
2023-05-14T03:53:24.768Z,24.94
2023-05-14T03:56:28.131Z,24.95
2023-05-14T03:59:31.566Z,24.98
2023-05-14T04:02:34.931Z,24.93
2023-05-14T04:05:40.813Z,24.74
2023-05-14T04:08:44.095Z,24.87
2023-05-14T04:11:47.502Z,24.94
2023-05-14T04:14:51.210Z,24.88
2023-05-14T04:17:54.553Z,24.44
2023-05-14T04:20:57.797Z,24.59
2023-05-14T04:24:01.069Z,24.47
2023-05-14T04:27:07.586Z,24.67
2023-05-14T04:30:10.905Z,24.47
2023-05-14T04:33:14.518Z,24.46
2023-05-14T04:36:17.794Z,24.53
2023-05-14T04:39:21.031Z,24.58
2023-05-14T04:42:24.443Z,24.71
2023-05-14T04:45:27.755Z,24.66
2023-05-14T04:48:31.593Z,24.71
2023-05-14T04:51:37.293Z,24.76
2023-05-14T04:54:40.696Z,24.80
2023-05-14T04:57:44.276Z,24.62
2023-05-14T05:00:47.623Z,24.39
2023-05-14T05:03:51.000Z,24.39
2023-05-14T05:06:54.276Z,24.33
2023-05-14T05:09:57.616Z,24.34
2023-05-14T05:13:01.431Z,24.32
2023-05-14T05:16:04.956Z,24.55
2023-05-14T05:19:08.332Z,24.55
2023-05-14T05:22:11.849Z,24.36
2023-05-14T05:25:15.357Z,24.24
2023-05-14T05:28:18.624Z,24.27
2023-05-14T05:31:22.182Z,24.33
2023-05-14T05:34:25.575Z,24.40
2023-05-14T05:37:28.942Z,24.48
2023-05-14T05:40:33.328Z,24.41
2023-05-14T05:43:36.889Z,24.04
2023-05-14T05:46:40.196Z,23.85
2023-05-14T05:49:44.312Z,23.79
2023-05-14T05:52:48.237Z,23.96
2023-05-14T05:55:51.730Z,24.18
2023-05-14T05:58:55.302Z,24.15
2023-05-14T06:01:58.595Z,24.05
2023-05-14T06:05:02.051Z,24.19
2023-05-14T06:08:05.812Z,24.14
2023-05-14T06:11:09.369Z,24.10
2023-05-14T06:14:12.598Z,24.12
2023-05-14T06:17:16.479Z,24.01
2023-05-14T06:20:20.222Z,24.00
2023-05-14T06:23:26.759Z,23.87
2023-05-14T06:26:30.222Z,23.48
2023-05-14T06:29:35.782Z,23.61
2023-05-14T06:32:39.420Z,23.65
2023-05-14T06:35:42.917Z,23.82
2023-05-14T06:38:46.429Z,23.84
2023-05-14T06:41:52.022Z,23.69
2023-05-14T06:44:55.257Z,23.67
2023-05-14T06:47:58.610Z,23.70
2023-05-14T06:51:02.117Z,23.69
2023-05-14T06:54:05.634Z,23.65
2023-05-14T06:57:09.254Z,23.58
2023-05-14T07:00:13.137Z,23.34
2023-05-14T07:03:17.056Z,23.53
2023-05-14T07:06:20.564Z,23.49
2023-05-14T07:09:24.086Z,23.34
2023-05-14T07:12:27.317Z,23.35
2023-05-14T07:15:30.615Z,23.43
2023-05-14T07:18:36.553Z,23.34
2023-05-14T07:21:42.209Z,23.37
2023-05-14T07:24:47.928Z,23.36
2023-05-14T07:27:51.570Z,23.35
2023-05-14T07:30:55.483Z,23.29
2023-05-14T07:34:01.237Z,23.26
2023-05-14T07:37:04.550Z,23.07
2023-05-14T07:40:08.305Z,23.15
2023-05-14T07:43:11.962Z,23.19
2023-05-14T07:46:16.693Z,23.04
2023-05-14T07:49:22.467Z,23.13
2023-05-14T07:52:26.156Z,23.05
2023-05-14T07:55:29.970Z,23.13
2023-05-14T07:58:33.236Z,23.05
2023-05-14T08:01:37.842Z,22.98
2023-05-14T08:04:42.761Z,22.95
2023-05-14T08:07:48.358Z,22.76
2023-05-14T08:10:51.983Z,22.87
2023-05-14T08:13:55.232Z,22.90
2023-05-14T08:16:59.176Z,22.91
2023-05-14T08:20:02.997Z,22.93
2023-05-14T08:23:06.490Z,23.00
2023-05-14T08:26:10.300Z,22.97
2023-05-14T08:29:16.287Z,22.94
2023-05-14T08:32:23.834Z,22.91
2023-05-14T08:35:29.470Z,22.93
2023-05-14T08:38:33.012Z,22.90
2023-05-14T08:41:37.002Z,22.69
2023-05-14T08:44:44.289Z,22.45
2023-05-14T08:47:51.094Z,22.49
2023-05-14T08:50:55.153Z,22.72
2023-05-14T08:54:00.492Z,22.79
2023-05-14T08:57:05.560Z,22.84
2023-05-14T09:00:09.894Z,22.79
2023-05-14T09:03:13.737Z,22.78
2023-05-14T09:06:17.086Z,22.78
2023-05-14T09:09:21.365Z,22.72
2023-05-14T09:12:24.678Z,22.68
2023-05-14T09:15:29.076Z,22.66
2023-05-14T09:18:32.761Z,22.63
2023-05-14T09:21:36.352Z,22.63
2023-05-14T09:24:40.138Z,22.63
2023-05-14T09:27:43.599Z,22.59
2023-05-14T09:30:52.943Z,22.62
2023-05-14T09:33:58.473Z,22.62
2023-05-14T09:37:07.308Z,22.60
2023-05-14T09:40:14.702Z,22.54
2023-05-14T09:43:20.352Z,22.60
2023-05-14T09:46:23.612Z,22.62
2023-05-14T09:49:26.945Z,22.60
2023-05-14T09:52:30.649Z,22.63
2023-05-14T09:55:34.643Z,22.51
2023-05-14T09:58:38.154Z,22.54
2023-05-14T10:01:44.544Z,22.51
2023-05-14T10:04:50.220Z,22.27
2023-05-14T10:07:55.661Z,22.24
2023-05-14T10:11:00.566Z,22.36
2023-05-14T10:14:24.651Z,22.40
2023-05-14T10:17:33.604Z,22.46
2023-05-14T10:20:38.695Z,22.45
2023-05-14T10:23:44.843Z,22.37
2023-05-14T10:26:48.310Z,22.38
2023-05-14T10:29:55.990Z,22.42
2023-05-14T10:33:11.885Z,22.43
2023-05-14T10:36:15.249Z,22.26
2023-05-14T10:39:18.510Z,22.31
2023-05-14T10:42:28.513Z,22.34
2023-05-14T10:45:32.182Z,22.37
2023-05-14T10:48:36.255Z,22.36
2023-05-14T10:51:39.762Z,22.38
2023-05-14T10:54:52.640Z,22.38
2023-05-14T10:57:55.907Z,22.27
2023-05-14T11:01:04.156Z,22.36
2023-05-14T11:04:07.384Z,22.40
2023-05-14T11:07:11.124Z,22.31
2023-05-14T11:10:18.819Z,22.34
2023-05-14T11:13:27.641Z,22.41
2023-05-14T11:16:33.869Z,22.31
2023-05-14T11:19:37.449Z,22.34
2023-05-14T11:22:42.182Z,22.36
2023-05-14T11:25:46.047Z,22.38
2023-05-14T11:28:49.604Z,22.40
2023-05-14T11:31:53.228Z,22.41
2023-05-14T11:34:58.360Z,22.47
2023-05-14T11:38:02.261Z,22.46
2023-05-14T11:41:05.613Z,22.47
2023-05-14T11:44:09.257Z,22.45
2023-05-14T11:47:15.756Z,22.42
2023-05-14T11:50:20.739Z,22.51
2023-05-14T11:53:33.717Z,22.61
2023-05-14T11:56:39.338Z,22.66
2023-05-14T11:59:42.682Z,22.81
2023-05-14T12:02:46.047Z,22.76
2023-05-14T12:06:03.506Z,22.76
2023-05-14T12:09:10.659Z,22.75
2023-05-14T12:12:13.930Z,22.90
2023-05-14T12:15:18.285Z,22.81
2023-05-14T12:18:24.984Z,22.77
2023-05-14T12:21:29.789Z,22.93
2023-05-14T12:24:35.399Z,22.68
2023-05-14T12:27:39.044Z,22.89
2023-05-14T12:30:42.319Z,23.10
2023-05-14T12:33:46.004Z,22.76
2023-05-14T12:36:49.292Z,22.90
2023-05-14T12:39:52.700Z,22.90
2023-05-14T12:42:59.600Z,23.18
2023-05-14T12:46:03.163Z,23.30
2023-05-14T12:49:06.313Z,23.41
2023-05-14T12:52:25.745Z,23.44
2023-05-14T12:55:33.179Z,23.54
2023-05-14T12:58:36.660Z,23.51
2023-05-14T13:01:40.517Z,23.63
2023-05-14T13:04:43.881Z,23.48
2023-05-14T13:07:47.239Z,23.37
2023-05-14T13:10:50.811Z,23.36
2023-05-14T13:13:53.999Z,23.78
2023-05-14T13:16:57.378Z,23.89
2023-05-14T13:20:00.685Z,23.74
2023-05-14T13:23:04.080Z,23.61
2023-05-14T13:26:07.353Z,23.31
2023-05-14T13:29:10.884Z,23.41
2023-05-14T13:32:14.394Z,23.41
2023-05-14T13:35:17.902Z,23.43
2023-05-14T13:38:21.508Z,23.60
2023-05-14T13:41:26.501Z,23.69
2023-05-14T13:44:32.037Z,23.81
2023-05-14T13:47:35.649Z,23.85
2023-05-14T13:50:39.038Z,23.84
2023-05-14T13:53:42.316Z,24.01
2023-05-14T13:56:45.613Z,23.96
2023-05-14T13:59:49.187Z,24.23
2023-05-14T14:02:52.682Z,24.38
2023-05-14T14:05:56.021Z,24.40
2023-05-14T14:09:01.157Z,24.47
2023-05-14T14:12:05.236Z,24.83
2023-05-14T14:15:08.946Z,25.11
2023-05-14T14:18:12.215Z,25.21
2023-05-14T14:21:15.744Z,25.24
2023-05-14T14:24:19.402Z,25.62
2023-05-14T14:27:22.727Z,25.75
2023-05-14T14:30:25.994Z,25.23
2023-05-14T14:33:31.756Z,25.44
2023-05-14T14:36:35.388Z,25.73
2023-05-14T14:39:38.624Z,25.65
2023-05-14T14:42:42.221Z,25.72
2023-05-14T14:45:48.332Z,26.04
2023-05-14T14:48:52.347Z,26.37
2023-05-14T14:51:55.560Z,26.56
2023-05-14T14:54:58.836Z,27.00
2023-05-14T14:58:04.309Z,27.53
2023-05-14T15:01:07.820Z,27.66
2023-05-14T15:04:13.442Z,28.00
2023-05-14T15:07:16.771Z,27.50
2023-05-14T15:10:20.119Z,27.26
2023-05-14T15:13:23.717Z,27.28
2023-05-14T15:16:27.288Z,27.16
2023-05-14T15:19:33.895Z,27.80
2023-05-14T15:22:37.749Z,27.47
2023-05-14T15:25:41.248Z,27.53
2023-05-14T15:28:44.663Z,27.35
2023-05-14T15:31:48.702Z,27.78
2023-05-14T15:34:55.420Z,28.57
2023-05-14T15:37:58.933Z,29.08
2023-05-14T15:41:02.288Z,28.82
2023-05-14T15:44:06.104Z,29.01
2023-05-14T15:47:09.409Z,28.90
2023-05-14T15:50:12.795Z,28.22
2023-05-14T15:53:18.467Z,28.51
2023-05-14T15:56:23.162Z,29.02
2023-05-14T15:59:26.697Z,29.21
2023-05-14T16:02:30.139Z,29.78
2023-05-14T16:05:33.444Z,29.16
2023-05-14T16:08:36.759Z,28.71
2023-05-14T16:11:40.124Z,28.66
2023-05-14T16:14:43.420Z,29.22
2023-05-14T16:17:47.049Z,28.58
2023-05-14T16:20:52.597Z,29.10
2023-05-14T16:23:55.793Z,28.85
2023-05-14T16:26:59.504Z,29.42
2023-05-14T16:30:02.790Z,29.40
2023-05-14T16:33:06.202Z,29.65
2023-05-14T16:36:09.983Z,29.60
2023-05-14T16:39:13.278Z,29.13
2023-05-14T16:42:18.096Z,28.87
2023-05-14T16:45:21.917Z,28.96
2023-05-14T16:48:25.274Z,28.80
2023-05-14T16:51:28.647Z,29.09
2023-05-14T16:54:31.881Z,29.09
2023-05-14T16:57:35.681Z,28.79
2023-05-14T17:00:39.083Z,29.17
2023-05-14T17:03:44.616Z,29.83
2023-05-14T17:06:47.794Z,30.14
2023-05-14T17:09:51.048Z,30.38
2023-05-14T17:12:54.624Z,29.91
2023-05-14T17:15:57.922Z,30.69
2023-05-14T17:19:01.249Z,30.09
2023-05-14T17:22:04.725Z,29.79
2023-05-14T17:25:08.634Z,30.81
2023-05-14T17:28:13.081Z,30.44
2023-05-14T17:31:16.375Z,29.32
2023-05-14T17:34:19.612Z,29.97
2023-05-14T17:37:23.553Z,30.40
2023-05-14T17:40:26.977Z,30.58
2023-05-14T17:43:30.646Z,30.02
2023-05-14T17:46:34.009Z,30.69
2023-05-14T17:49:37.463Z,30.53
2023-05-14T17:52:40.753Z,30.68
2023-05-14T17:55:43.989Z,31.23
2023-05-14T17:58:47.521Z,31.08
2023-05-14T18:01:52.315Z,31.00
2023-05-14T18:04:55.548Z,30.49
2023-05-14T18:07:59.315Z,30.59
2023-05-14T18:11:02.845Z,31.44
2023-05-14T18:14:06.094Z,30.48
2023-05-14T18:17:09.603Z,30.80
2023-05-14T18:20:13.366Z,30.62
2023-05-14T18:23:16.897Z,31.59
2023-05-14T18:26:21.553Z,31.66
2023-05-14T18:29:24.849Z,31.00
2023-05-14T18:32:28.123Z,31.48
2023-05-14T18:35:31.645Z,31.89
2023-05-14T18:38:35.040Z,32.16
2023-05-14T18:41:38.549Z,32.19
2023-05-14T18:44:41.759Z,32.35
2023-05-14T18:47:45.158Z,32.26
2023-05-14T18:50:48.345Z,31.45
2023-05-14T18:53:52.393Z,31.21
2023-05-14T18:56:55.867Z,31.26
2023-05-14T18:59:59.638Z,31.53
2023-05-14T19:03:03.155Z,31.37
2023-05-14T19:06:06.517Z,31.57
2023-05-14T19:09:10.203Z,31.64
2023-05-14T19:12:13.426Z,31.93
2023-05-14T19:15:16.871Z,32.26
2023-05-14T19:18:20.366Z,31.73
2023-05-14T19:21:23.839Z,31.73
2023-05-14T19:24:27.549Z,30.95
2023-05-14T19:27:30.885Z,30.99
2023-05-14T19:30:34.263Z,30.74
2023-05-14T19:33:39.852Z,31.69
2023-05-14T19:36:43.670Z,32.08
2023-05-14T19:39:49.814Z,31.43
2023-05-14T19:42:52.674Z,31.88
2023-05-14T19:45:55.922Z,31.57
2023-05-14T19:48:59.917Z,31.79
2023-05-14T19:52:03.415Z,31.95
2023-05-14T19:55:07.016Z,31.77
2023-05-14T19:58:10.232Z,31.38
2023-05-14T20:01:13.594Z,31.66
2023-05-14T20:04:20.033Z,31.20
2023-05-14T20:07:23.676Z,31.55
2023-05-14T20:10:27.299Z,31.56
2023-05-14T20:13:31.757Z,31.44
2023-05-14T20:16:35.747Z,31.39
2023-05-14T20:19:38.991Z,31.02
2023-05-14T20:22:42.313Z,31.33
2023-05-14T20:25:45.772Z,30.58
2023-05-14T20:28:48.911Z,30.85
2023-05-14T20:31:52.478Z,31.45
2023-05-14T20:34:58.445Z,31.12
2023-05-14T20:38:01.825Z,30.36
2023-05-14T20:41:05.114Z,31.09
2023-05-14T20:44:08.656Z,30.99
2023-05-14T20:47:13.228Z,31.58
2023-05-14T20:50:22.947Z,31.49
2023-05-14T20:53:26.177Z,31.89
2023-05-14T20:56:29.812Z,32.13
2023-05-14T20:59:33.118Z,31.99
2023-05-14T21:02:37.224Z,31.38
2023-05-14T21:05:40.685Z,31.59
2023-05-14T21:08:46.273Z,31.95
2023-05-14T21:11:49.584Z,31.70
2023-05-14T21:14:52.856Z,31.68
2023-05-14T21:17:56.596Z,31.28
2023-05-14T21:21:00.136Z,31.47
2023-05-14T21:24:03.821Z,31.43
2023-05-14T21:27:07.111Z,31.28
2023-05-14T21:30:11.162Z,31.48
2023-05-14T21:33:14.669Z,31.67
2023-05-14T21:36:19.083Z,31.64
2023-05-14T21:39:25.758Z,31.94
2023-05-14T21:42:29.303Z,32.06
2023-05-14T21:45:32.675Z,32.40
2023-05-14T21:48:36.276Z,31.92
2023-05-14T21:51:40.839Z,32.11
2023-05-14T21:54:46.458Z,31.92
2023-05-14T21:57:49.889Z,31.72
2023-05-14T22:00:53.111Z,31.74
2023-05-14T22:03:59.483Z,31.57
2023-05-14T22:07:02.950Z,31.64
2023-05-14T22:10:06.612Z,31.20
2023-05-14T22:13:10.102Z,31.54
2023-05-14T22:16:14.236Z,31.49
2023-05-14T22:19:17.671Z,31.46
2023-05-14T22:22:21.136Z,31.33
2023-05-14T22:25:26.492Z,31.12
2023-05-14T22:28:30.227Z,31.35
2023-05-14T22:31:33.709Z,31.28
2023-05-14T22:34:37.950Z,31.51
2023-05-14T22:37:43.095Z,31.38
2023-05-14T22:40:46.728Z,31.67
2023-05-14T22:43:50.099Z,31.46
2023-05-14T22:46:53.508Z,31.41
2023-05-14T22:49:56.774Z,30.81
2023-05-14T22:53:00.671Z,31.28
2023-05-14T22:56:04.283Z,31.15
2023-05-14T22:59:07.787Z,30.90
2023-05-14T23:02:13.385Z,31.16
2023-05-14T23:05:16.954Z,31.18
2023-05-14T23:08:20.424Z,30.97
2023-05-14T23:11:23.661Z,30.69
2023-05-14T23:14:26.941Z,30.88
2023-05-14T23:17:30.287Z,31.02
2023-05-14T23:20:34.659Z,30.81
2023-05-14T23:23:40.241Z,30.70
2023-05-14T23:26:43.417Z,30.59
2023-05-14T23:29:46.858Z,30.35
2023-05-14T23:32:50.061Z,30.45
2023-05-14T23:35:53.457Z,30.39
2023-05-14T23:38:58.938Z,30.56
2023-05-14T23:42:02.273Z,30.58
2023-05-14T23:45:06.034Z,30.59
2023-05-14T23:48:09.566Z,30.48
2023-05-14T23:51:14.103Z,30.58
2023-05-14T23:54:17.641Z,30.55
2023-05-14T23:57:23.280Z,30.40
